Waynesboro, Pennsylvania
Current Conditions -  °F | °C
As of 4:53 PM on Saturday 25 Oct 2014 (Local Time) from KHGR Reporting Station
Clear Clear  
Wind Chill: 22°   Ceiling: Unl
Heat Index: 22°   Visibility: 10mi
Dew Point:   Wind: 10mph
Humidity: 35%   Direction: 260°W
Pressure: 29.73"   Gusts: 21mph
Location:  39.76°N, 77.58°W
Report Text: KHGR 252053Z AUTO 26009G18KT 10SM CLR 22/06 A2973 RMK AO2 SLP075 T02170056 56033
Loading
Personal Weather Stations






























Interactive Weather Map
Tropical Storm Tracking
New forecast layout! Learn more

10-Day Weather Forecast

Advertisements
Track Severe Weather on mobile